createdAt,value
2023-03-04T00:00:37.936Z,7.68
2023-03-04T00:03:21.821Z,7.82
2023-03-04T00:06:07.751Z,7.58
2023-03-04T00:08:51.563Z,7.74
2023-03-04T00:11:35.662Z,7.74
2023-03-04T00:14:19.425Z,7.85
2023-03-04T00:17:04.511Z,7.94
2023-03-04T00:19:48.643Z,7.92
2023-03-04T00:22:33.748Z,7.96
2023-03-04T00:25:17.546Z,8.20
2023-03-04T00:28:01.320Z,8.21
2023-03-04T00:30:45.099Z,8.10
2023-03-04T00:33:28.905Z,7.98
2023-03-04T00:36:12.720Z,7.95
2023-03-04T00:38:57.866Z,8.12
2023-03-04T00:41:42.125Z,8.15
2023-03-04T00:44:25.900Z,8.22
2023-03-04T00:47:09.724Z,8.00
2023-03-04T00:49:53.464Z,8.14
2023-03-04T00:52:37.449Z,8.05
2023-03-04T00:55:22.589Z,8.20
2023-03-04T00:58:06.344Z,8.24
2023-03-04T01:00:50.131Z,8.28
2023-03-04T01:03:35.563Z,8.02
2023-03-04T01:06:19.294Z,7.54
2023-03-04T01:09:03.136Z,7.71
2023-03-04T01:11:48.551Z,7.55
2023-03-04T01:14:32.315Z,7.37
2023-03-04T01:17:16.090Z,7.18
2023-03-04T01:19:59.911Z,7.26
2023-03-04T01:22:43.662Z,7.29
2023-03-04T01:25:27.518Z,7.30
2023-03-04T01:28:12.750Z,7.19
2023-03-04T01:30:58.277Z,7.26
2023-03-04T01:33:42.031Z,7.47
2023-03-04T01:36:27.140Z,7.79
2023-03-04T01:39:10.893Z,7.87
2023-03-04T01:41:54.639Z,8.08
2023-03-04T01:44:39.841Z,8.16
2023-03-04T01:47:27.322Z,8.21
2023-03-04T01:50:18.832Z,8.33
2023-03-04T01:53:02.920Z,8.38
2023-03-04T01:55:46.910Z,8.38
2023-03-04T01:58:32.167Z,8.46
2023-03-04T02:01:17.261Z,8.53
2023-03-04T02:04:01.599Z,8.28
2023-03-04T02:06:47.722Z,8.29
2023-03-04T02:09:33.199Z,8.34
2023-03-04T02:12:18.742Z,8.34
2023-03-04T02:15:02.585Z,8.11
2023-03-04T02:17:51.287Z,8.01
2023-03-04T02:20:45.064Z,8.30
2023-03-04T02:23:34.289Z,8.35
2023-03-04T02:26:21.218Z,8.46
2023-03-04T02:29:07.775Z,8.40
2023-03-04T02:31:53.155Z,8.44
2023-03-04T02:34:37.838Z,8.45
2023-03-04T02:37:21.812Z,8.51
2023-03-04T02:40:15.026Z,8.42
2023-03-04T02:43:02.161Z,8.49
2023-03-04T02:45:47.652Z,8.53
2023-03-04T02:48:31.727Z,8.59
2023-03-04T02:51:15.545Z,8.68
2023-03-04T02:53:59.559Z,8.50
2023-03-04T02:56:46.789Z,8.45
2023-03-04T02:59:32.982Z,8.29
2023-03-04T03:02:16.768Z,8.36
2023-03-04T03:05:00.608Z,8.15
2023-03-04T03:07:44.825Z,8.23
2023-03-04T03:10:29.650Z,8.12
2023-03-04T03:13:13.632Z,8.21
2023-03-04T03:15:59.246Z,8.17
2023-03-04T03:18:43.093Z,7.11
2023-03-04T03:21:26.870Z,7.95
2023-03-04T03:24:10.730Z,7.98
2023-03-04T03:26:54.581Z,8.02
2023-03-04T03:29:38.554Z,8.04
2023-03-04T03:32:26.327Z,8.11
2023-03-04T03:35:10.473Z,8.04
2023-03-04T03:37:54.220Z,8.07
2023-03-04T03:40:38.144Z,8.09
2023-03-04T03:43:21.869Z,8.09
2023-03-04T03:46:06.018Z,8.01
2023-03-04T03:48:51.241Z,8.11
2023-03-04T03:51:35.112Z,8.00
2023-03-04T03:54:18.894Z,8.08
2023-03-04T03:57:02.647Z,8.13
2023-03-04T03:59:46.469Z,8.09
2023-03-04T04:02:30.372Z,8.05
2023-03-04T04:05:16.108Z,8.25
2023-03-04T04:07:59.894Z,7.79
2023-03-04T04:10:44.572Z,7.75
2023-03-04T04:13:28.386Z,7.67
2023-03-04T04:16:12.889Z,7.78
2023-03-04T04:18:56.761Z,7.75
2023-03-04T04:21:41.837Z,7.95
2023-03-04T04:24:25.741Z,7.79
2023-03-04T04:27:09.657Z,8.03
2023-03-04T04:29:53.471Z,8.11
2023-03-04T04:32:37.259Z,8.11
2023-03-04T04:35:21.290Z,7.77
2023-03-04T04:38:06.614Z,7.83
2023-03-04T04:40:50.366Z,7.95
2023-03-04T04:43:34.206Z,7.89
2023-03-04T04:46:19.111Z,7.87
2023-03-04T04:49:03.377Z,8.15
2023-03-04T04:51:47.823Z,7.94
2023-03-04T04:54:33.334Z,8.25
2023-03-04T04:57:17.270Z,8.17
2023-03-04T05:00:01.137Z,8.08
2023-03-04T05:02:47.452Z,7.49
2023-03-04T05:05:31.322Z,8.13
2023-03-04T05:08:15.123Z,8.02
2023-03-04T05:11:00.387Z,8.15
2023-03-04T05:13:44.436Z,8.13
2023-03-04T05:16:28.299Z,8.27
2023-03-04T05:19:12.375Z,8.37
2023-03-04T05:21:56.228Z,8.34
2023-03-04T05:24:40.023Z,8.34
2023-03-04T05:27:25.282Z,8.35
2023-03-04T05:30:10.625Z,8.30
2023-03-04T05:32:54.679Z,8.34
2023-03-04T05:35:39.513Z,8.33
2023-03-04T05:38:24.144Z,8.33
2023-03-04T05:41:08.819Z,8.44
2023-03-04T05:43:54.029Z,8.45
2023-03-04T05:46:38.021Z,8.54
2023-03-04T05:49:21.971Z,8.57
2023-03-04T05:52:05.638Z,8.69
2023-03-04T05:54:49.399Z,8.73
2023-03-04T05:57:33.412Z,8.73
2023-03-04T06:00:19.153Z,8.35
2023-03-04T06:03:03.021Z,8.37
2023-03-04T06:05:47.115Z,8.59
2023-03-04T06:08:30.976Z,8.68
2023-03-04T06:11:14.873Z,8.84
2023-03-04T06:13:58.869Z,9.00
2023-03-04T06:16:44.122Z,9.10
2023-03-04T06:19:27.891Z,9.00
2023-03-04T06:22:12.413Z,8.97
2023-03-04T06:24:56.593Z,9.10
2023-03-04T06:27:40.616Z,9.09
2023-03-04T06:30:24.840Z,9.20
2023-03-04T06:33:10.242Z,9.22
2023-03-04T06:35:56.466Z,9.32
2023-03-04T06:38:40.492Z,9.52
2023-03-04T06:41:24.333Z,9.29
2023-03-04T06:44:08.493Z,9.25
2023-03-04T06:46:52.517Z,9.48
2023-03-04T06:49:37.779Z,9.65
2023-03-04T06:52:21.619Z,9.48
2023-03-04T06:55:06.584Z,9.74
2023-03-04T06:57:50.360Z,10.17
2023-03-04T07:00:34.358Z,10.09
2023-03-04T07:03:18.274Z,9.47
2023-03-04T07:06:03.466Z,9.94
2023-03-04T07:08:48.008Z,9.99
2023-03-04T07:11:31.918Z,9.99
2023-03-04T07:14:15.861Z,9.86
2023-03-04T07:16:59.894Z,10.12
2023-03-04T07:19:44.787Z,10.43
2023-03-04T07:22:30.046Z,10.28
2023-03-04T07:25:13.854Z,10.42
2023-03-04T07:27:57.692Z,10.32
2023-03-04T07:30:41.541Z,11.16
2023-03-04T07:33:25.319Z,11.15
2023-03-04T07:36:09.349Z,11.41
2023-03-04T07:38:55.946Z,11.10
2023-03-04T07:41:39.885Z,11.22
2023-03-04T07:44:23.630Z,11.63
2023-03-04T07:47:07.501Z,11.51
2023-03-04T07:49:51.621Z,11.40
2023-03-04T07:52:38.999Z,11.77
2023-03-04T07:55:24.222Z,11.86
2023-03-04T07:58:07.998Z,12.34
2023-03-04T08:00:51.759Z,11.86
2023-03-04T08:03:35.748Z,11.44
2023-03-04T08:06:21.603Z,11.28
2023-03-04T08:09:07.748Z,11.80
2023-03-04T08:11:52.962Z,11.68
2023-03-04T08:14:36.833Z,11.65
2023-03-04T08:17:20.606Z,11.17
2023-03-04T08:20:04.817Z,11.33
2023-03-04T08:22:48.664Z,11.18
2023-03-04T08:25:32.548Z,11.31
2023-03-04T08:28:18.556Z,11.43
2023-03-04T08:31:02.366Z,11.69
2023-03-04T08:33:46.838Z,11.68
2023-03-04T08:36:30.722Z,11.73
2023-03-04T08:39:16.716Z,11.58
2023-03-04T08:42:00.622Z,11.72
2023-03-04T08:44:45.902Z,11.87
2023-03-04T08:47:29.755Z,11.73
2023-03-04T08:50:13.691Z,11.90
2023-03-04T08:52:57.604Z,11.72
2023-03-04T08:55:42.264Z,11.94
2023-03-04T08:58:26.226Z,11.33
2023-03-04T09:01:13.383Z,11.46
2023-03-04T09:03:57.382Z,11.16
2023-03-04T09:06:41.552Z,11.22
2023-03-04T09:09:25.448Z,11.18
2023-03-04T09:12:09.342Z,11.28
2023-03-04T09:15:08.328Z,10.99
2023-03-04T09:17:55.276Z,11.11
2023-03-04T09:20:39.109Z,11.17
2023-03-04T09:23:23.443Z,11.39
2023-03-04T09:26:16.485Z,11.07
2023-03-04T09:29:02.392Z,10.64
2023-03-04T09:31:46.654Z,10.31
2023-03-04T09:34:32.010Z,10.48
2023-03-04T09:37:15.866Z,10.53
2023-03-04T09:39:59.614Z,10.80
2023-03-04T09:42:49.093Z,10.77
2023-03-04T09:45:39.375Z,10.70
2023-03-04T09:48:26.233Z,10.77
2023-03-04T09:51:21.420Z,10.92
2023-03-04T09:54:09.195Z,10.98
2023-03-04T09:56:57.287Z,10.87
2023-03-04T09:59:47.296Z,11.10
2023-03-04T10:02:43.336Z,11.05
2023-03-04T10:05:28.883Z,11.11
2023-03-04T10:08:37.035Z,11.27
2023-03-04T10:11:27.769Z,10.72
2023-03-04T10:14:33.833Z,11.15
2023-03-04T10:17:23.779Z,11.28
2023-03-04T10:20:13.818Z,11.37
2023-03-04T10:23:00.027Z,11.39
2023-03-04T10:25:51.803Z,11.47
2023-03-04T10:28:36.707Z,11.96
2023-03-04T10:31:28.684Z,12.24
2023-03-04T10:34:13.699Z,12.19
2023-03-04T10:37:00.653Z,12.41
2023-03-04T10:39:46.735Z,12.62
2023-03-04T10:42:37.628Z,12.62
2023-03-04T10:45:23.668Z,12.43
2023-03-04T10:48:08.037Z,12.22
2023-03-04T10:50:51.985Z,12.21
2023-03-04T10:53:40.696Z,12.12
2023-03-04T10:56:34.971Z,11.95
2023-03-04T10:59:41.996Z,12.16
2023-03-04T11:02:28.164Z,11.89
2023-03-04T11:05:19.646Z,12.50
2023-03-04T11:08:03.475Z,12.48
2023-03-04T11:10:47.656Z,12.27
2023-03-04T11:13:32.802Z,12.58
2023-03-04T11:16:27.925Z,12.17
2023-03-04T11:19:17.920Z,11.86
2023-03-04T11:22:02.911Z,11.91
2023-03-04T11:24:52.597Z,11.97
2023-03-04T11:27:43.234Z,11.87
2023-03-04T11:30:42.785Z,12.02
2023-03-04T11:33:37.329Z,11.84
2023-03-04T11:36:32.690Z,11.85
2023-03-04T11:39:23.200Z,12.28
2023-03-04T11:42:14.601Z,12.62
2023-03-04T11:44:58.812Z,12.87
2023-03-04T11:48:04.503Z,12.99
2023-03-04T11:50:54.799Z,13.40
2023-03-04T11:53:50.843Z,13.27
2023-03-04T11:56:40.899Z,13.67
2023-03-04T11:59:52.268Z,13.66
2023-03-04T12:02:44.747Z,14.15
2023-03-04T12:05:36.416Z,14.45
2023-03-04T12:08:44.490Z,14.85
2023-03-04T12:11:40.322Z,14.52
2023-03-04T12:14:30.758Z,14.26
2023-03-04T12:17:40.468Z,13.94
2023-03-04T12:20:38.435Z,13.84
2023-03-04T12:23:34.915Z,13.82
2023-03-04T12:26:34.435Z,13.82
2023-03-04T12:29:27.941Z,13.29
2023-03-04T12:32:19.535Z,13.15
2023-03-04T12:35:21.494Z,13.49
2023-03-04T12:38:20.890Z,13.40
2023-03-04T12:41:21.384Z,13.62
2023-03-04T12:44:17.032Z,13.55
2023-03-04T12:47:18.614Z,13.49
2023-03-04T12:50:22.406Z,12.99
2023-03-04T12:53:17.529Z,12.93
2023-03-04T12:56:03.623Z,12.95
2023-03-04T12:58:47.646Z,13.03
2023-03-04T13:01:40.096Z,13.14
2023-03-04T13:04:29.751Z,13.07
2023-03-04T13:07:20.218Z,13.47
2023-03-04T13:10:11.906Z,13.37
2023-03-04T13:12:58.186Z,13.22
2023-03-04T13:15:42.207Z,13.56
2023-03-04T13:18:35.599Z,13.57
2023-03-04T13:21:25.456Z,14.17
2023-03-04T13:24:46.019Z,14.23
2023-03-04T13:27:51.913Z,14.07
2023-03-04T13:31:04.746Z,13.99
2023-03-04T13:34:06.529Z,13.87
2023-03-04T13:36:57.290Z,13.71
2023-03-04T13:39:41.238Z,13.38
2023-03-04T13:42:42.988Z,13.62
2023-03-04T13:45:38.962Z,13.61
2023-03-04T13:48:28.590Z,13.71
2023-03-04T13:51:28.932Z,14.12
2023-03-04T13:54:24.107Z,14.19
2023-03-04T13:57:20.654Z,14.35
2023-03-04T14:00:06.842Z,14.15
2023-03-04T14:02:52.470Z,14.50
2023-03-04T14:05:36.421Z,14.33
2023-03-04T14:08:22.439Z,13.70
2023-03-04T14:11:06.519Z,13.55
2023-03-04T14:13:50.770Z,13.64
2023-03-04T14:16:40.964Z,13.87
2023-03-04T14:19:29.654Z,13.65
2023-03-04T14:22:23.149Z,13.48
2023-03-04T14:25:22.303Z,13.62
2023-03-04T14:28:11.767Z,13.47
2023-03-04T14:30:58.388Z,13.60
2023-03-04T14:33:47.127Z,13.67
2023-03-04T14:36:33.912Z,13.43
2023-03-04T14:39:20.098Z,13.23
2023-03-04T14:42:11.566Z,13.25
2023-03-04T14:44:59.800Z,13.13
2023-03-04T14:47:47.645Z,13.38
2023-03-04T14:50:31.651Z,13.43
2023-03-04T14:53:17.977Z,13.32
2023-03-04T14:56:04.669Z,13.33
2023-03-04T14:58:57.161Z,13.22
2023-03-04T15:01:40.980Z,13.25
2023-03-04T15:04:24.958Z,13.23
2023-03-04T15:07:19.844Z,13.33
2023-03-04T15:10:08.360Z,13.16
2023-03-04T15:12:54.398Z,12.91
2023-03-04T15:15:42.134Z,13.13
2023-03-04T15:18:27.308Z,12.90
2023-03-04T15:21:36.933Z,12.67
2023-03-04T15:24:21.705Z,12.55
2023-03-04T15:27:08.316Z,11.90
2023-03-04T15:29:56.060Z,12.27
2023-03-04T15:32:41.416Z,12.13
2023-03-04T15:35:26.566Z,12.14
2023-03-04T15:38:13.954Z,11.76
2023-03-04T15:40:58.510Z,11.63
2023-03-04T15:43:42.468Z,11.70
2023-03-04T15:46:26.378Z,11.54
2023-03-04T15:49:12.048Z,11.74
2023-03-04T15:51:55.774Z,11.54
2023-03-04T15:54:39.582Z,11.54
2023-03-04T15:57:26.073Z,10.77
2023-03-04T16:00:12.726Z,11.14
2023-03-04T16:02:56.557Z,11.16
2023-03-04T16:05:42.105Z,11.20
2023-03-04T16:08:26.358Z,11.15
2023-03-04T16:11:16.550Z,11.00
2023-03-04T16:14:00.326Z,10.80
2023-03-04T16:16:46.612Z,10.60
2023-03-04T16:19:30.530Z,10.81
2023-03-04T16:22:17.640Z,10.46
2023-03-04T16:25:01.463Z,10.68
2023-03-04T16:27:45.998Z,10.17
2023-03-04T16:30:29.760Z,9.94
2023-03-04T16:33:15.166Z,10.06
2023-03-04T16:35:59.360Z,9.75
2023-03-04T16:38:44.753Z,9.32
2023-03-04T16:41:30.779Z,9.37
2023-03-04T16:44:16.078Z,9.25
2023-03-04T16:46:59.896Z,9.30
2023-03-04T16:49:44.113Z,9.23
2023-03-04T16:52:32.050Z,8.94
2023-03-04T16:55:21.541Z,9.01
2023-03-04T16:58:08.007Z,8.75
2023-03-04T17:00:52.152Z,8.72
2023-03-04T17:03:36.055Z,8.58
2023-03-04T17:06:20.855Z,8.86
2023-03-04T17:09:04.791Z,8.70
2023-03-04T17:11:50.140Z,8.80
2023-03-04T17:14:34.007Z,8.37
2023-03-04T17:17:18.569Z,8.42
2023-03-04T17:20:06.150Z,8.49
2023-03-04T17:22:50.473Z,8.12
2023-03-04T17:25:34.557Z,7.75
2023-03-04T17:28:19.656Z,7.55
2023-03-04T17:31:09.367Z,7.37
2023-03-04T17:33:53.238Z,7.44
2023-03-04T17:36:37.530Z,7.29
2023-03-04T17:39:21.481Z,7.21
2023-03-04T17:42:07.099Z,7.22
2023-03-04T17:44:52.498Z,7.27
2023-03-04T17:47:36.635Z,7.25
2023-03-04T17:50:21.242Z,7.26
2023-03-04T17:53:05.234Z,7.31
2023-03-04T17:55:52.589Z,7.40
2023-03-04T17:58:37.838Z,7.48
2023-03-04T18:01:23.633Z,7.46
2023-03-04T18:04:07.734Z,7.34
2023-03-04T18:06:51.540Z,7.31
2023-03-04T18:09:35.677Z,7.02
2023-03-04T18:12:19.559Z,7.38
2023-03-04T18:15:03.376Z,7.19
2023-03-04T18:17:50.337Z,7.21
2023-03-04T18:20:34.575Z,7.20
2023-03-04T18:23:18.596Z,7.08
2023-03-04T18:26:04.509Z,7.04
2023-03-04T18:28:48.390Z,7.02
2023-03-04T18:31:33.074Z,7.07
2023-03-04T18:34:18.269Z,6.98
2023-03-04T18:37:02.129Z,6.86
2023-03-04T18:39:45.944Z,6.90
2023-03-04T18:42:29.811Z,6.77
2023-03-04T18:45:15.068Z,6.72
2023-03-04T18:48:00.736Z,6.68
2023-03-04T18:50:46.067Z,6.68
2023-03-04T18:53:30.979Z,6.63
2023-03-04T18:56:19.619Z,6.92
2023-03-04T18:59:03.706Z,7.14
2023-03-04T19:01:48.517Z,7.19
2023-03-04T19:04:32.860Z,7.08
2023-03-04T19:07:18.051Z,7.07
2023-03-04T19:10:02.051Z,6.71
2023-03-04T19:12:47.503Z,6.95
2023-03-04T19:15:31.388Z,6.90
2023-03-04T19:18:15.172Z,6.93
2023-03-04T19:21:02.986Z,6.93
2023-03-04T19:23:49.504Z,7.14
2023-03-04T19:26:33.392Z,7.12
2023-03-04T19:29:17.309Z,7.19
2023-03-04T19:32:01.264Z,6.89
2023-03-04T19:34:45.332Z,7.05
2023-03-04T19:37:29.370Z,7.10
2023-03-04T19:40:15.158Z,6.76
2023-03-04T19:42:59.102Z,7.13
2023-03-04T19:45:43.237Z,6.98
2023-03-04T19:48:27.076Z,6.87
2023-03-04T19:51:18.464Z,6.75
2023-03-04T19:54:02.792Z,6.81
2023-03-04T19:56:48.216Z,6.91
2023-03-04T19:59:32.167Z,6.69
2023-03-04T20:02:15.999Z,6.47
2023-03-04T20:05:00.328Z,6.31
2023-03-04T20:07:45.061Z,6.32
2023-03-04T20:10:32.957Z,6.45
2023-03-04T20:13:18.270Z,6.39
2023-03-04T20:16:02.200Z,6.50
2023-03-04T20:18:46.101Z,6.49
2023-03-04T20:21:32.701Z,6.49
2023-03-04T20:24:18.557Z,6.22
2023-03-04T20:27:02.454Z,6.56
2023-03-04T20:29:49.090Z,6.28
2023-03-04T20:32:33.102Z,6.32
2023-03-04T20:35:17.124Z,6.21
2023-03-04T20:38:01.083Z,6.16
2023-03-04T20:40:44.834Z,6.27
2023-03-04T20:43:29.705Z,5.99
2023-03-04T20:46:29.960Z,6.09
2023-03-04T20:49:16.288Z,6.02
2023-03-04T20:52:06.237Z,6.08
2023-03-04T20:54:50.121Z,6.24
2023-03-04T20:57:34.044Z,6.30
2023-03-04T21:00:18.383Z,6.04
2023-03-04T21:03:03.666Z,5.63
2023-03-04T21:05:47.456Z,5.83
2023-03-04T21:08:31.780Z,5.72
2023-03-04T21:11:17.863Z,5.68
2023-03-04T21:14:01.854Z,5.75
2023-03-04T21:16:45.645Z,5.90
2023-03-04T21:19:33.161Z,5.84
2023-03-04T21:22:20.184Z,6.07
2023-03-04T21:25:03.926Z,6.13
2023-03-04T21:27:47.718Z,5.90
2023-03-04T21:30:31.529Z,5.57
2023-03-04T21:33:19.256Z,5.27
2023-03-04T21:36:04.942Z,5.46
2023-03-04T21:38:48.891Z,5.29
2023-03-04T21:41:32.979Z,5.25
2023-03-04T21:44:27.954Z,5.63
2023-03-04T21:47:12.903Z,5.69
2023-03-04T21:49:56.946Z,5.28
2023-03-04T21:52:42.709Z,5.73
2023-03-04T21:55:26.766Z,5.88
2023-03-04T21:58:10.700Z,5.09
2023-03-04T22:00:54.922Z,5.75
2023-03-04T22:03:39.050Z,5.76
2023-03-04T22:06:24.554Z,5.90
2023-03-04T22:09:09.933Z,5.53
2023-03-04T22:11:53.789Z,5.47
2023-03-04T22:14:37.912Z,5.71
2023-03-04T22:17:22.033Z,5.74
2023-03-04T22:20:07.218Z,5.95
2023-03-04T22:22:51.130Z,5.86
2023-03-04T22:25:38.849Z,5.87
2023-03-04T22:28:25.164Z,5.47
2023-03-04T22:31:16.955Z,5.57
2023-03-04T22:34:02.704Z,5.83
2023-03-04T22:36:48.880Z,5.85
2023-03-04T22:39:32.680Z,5.80
2023-03-04T22:42:17.975Z,5.69
2023-03-04T22:45:01.887Z,5.62
2023-03-04T22:47:52.304Z,5.30
2023-03-04T22:50:36.854Z,5.07
2023-03-04T22:53:20.692Z,5.13
2023-03-04T22:56:04.769Z,5.08
2023-03-04T22:58:50.128Z,5.09
2023-03-04T23:01:33.903Z,5.31
2023-03-04T23:04:17.819Z,5.27
2023-03-04T23:07:01.597Z,5.29
2023-03-04T23:09:45.384Z,5.39
2023-03-04T23:12:29.118Z,5.53
2023-03-04T23:15:15.845Z,5.57
2023-03-04T23:18:00.126Z,5.63
2023-03-04T23:20:44.303Z,5.56
2023-03-04T23:23:28.055Z,5.46
2023-03-04T23:26:16.422Z,5.56
2023-03-04T23:29:01.551Z,5.81
2023-03-04T23:31:46.840Z,5.92
2023-03-04T23:34:31.006Z,5.83
2023-03-04T23:37:14.847Z,5.85
2023-03-04T23:39:58.583Z,5.69
2023-03-04T23:42:42.451Z,5.69
2023-03-04T23:45:26.253Z,5.72
2023-03-04T23:48:11.396Z,5.50
2023-03-04T23:50:55.442Z,5.76
2023-03-04T23:53:40.039Z,5.53
2023-03-04T23:56:25.393Z,5.47
2023-03-04T23:59:09.119Z,5.41
